Main page
METAR-TAF:

METAR-TAF

Airports :

Mwanza Airport

Mwanza, Tanzania

latitude: 02-28S, longitude: 032-55E, elevation: 1139 m

Current weather observation

The report was made 50 minutes ago, at 09:00 UTC
Wind 5 kt from the East/Northeast
Temperature 26°C
Humidity 70%
Pressure 1017 hPa
Visibility 10 km or more
Broken clouds at a height of 2500 ft
Few clouds at a height of 2600 ft

METAR: HTMW 130900Z 06005KT 9999 BKN025 FEW026 26/20 Q1017 NOSIG

Time: 12:50 (09:50 UTC)

Forecast

The report was made 4 hours and 50 minutes ago, at 05:00 UTC
Forecast valid from 13 at 06 UTC to 14 at 06 UTC
Wind 10 kt from the Southeast
Visibility 10 km or more
Broken clouds at a height of 2000 ft
Few clouds at a height of 2100 ft, Cumulonimbus.
thunderstorm, rain
Becoming
from 13 at 11 UTC to 13 at 13 UTC
Wind 10 kt from the Northwest
Scattered clouds at a height of 2400 ft
Few clouds at a height of 2500 ft, Cumulonimbus.

TAF: HTMW 130500Z 1306/1406 13010KT 9999 TSRA BKN020 FEW021CB BECMG 1311/1313 32010KT NSW SCT024 FEW025CB

Weather observations and forecasts of more than 4000 airports (METAR and TAF reports).

The available stations are represented by yellow and red dots on the map.

Hover mouse over dot to see the name of the station.

Then click to see weather observations and forecasts.

To change the map : click on the green buttons with a black cross to zoom in, on the green button with a dash to zoom out, or on the green arrows for adjacent maps.


METAR-TAF: